sensor_id;sensor_type;location;lat;lon;timestamp;P1;durP1;ratioP1;P2;durP2;ratioP2
26177;SDS011;13924;47.670;10.310;2023-08-08T00:00:38;3.6;;;1.1;;
26177;SDS011;13924;47.670;10.310;2023-08-08T00:15:38;2.1;;;1.3;;
26177;SDS011;13924;47.670;10.310;2023-08-08T00:30:40;3.9;;;1.3;;
26177;SDS011;13924;47.670;10.310;2023-08-08T00:45:40;1.3;;;1.2;;
26177;SDS011;13924;47.670;10.310;2023-08-08T01:00:41;1.9;;;1.3;;
26177;SDS011;13924;47.670;10.310;2023-08-08T01:01:26;1.6;;;1.3;;
26177;SDS011;13924;47.670;10.310;2023-08-08T01:15:41;1.6;;;1.2;;
26177;SDS011;13924;47.670;10.310;2023-08-08T01:30:43;1.4;;;1.2;;
26177;SDS011;13924;47.670;10.310;2023-08-08T01:45:42;3.2;;;1.5;;
26177;SDS011;13924;47.670;10.310;2023-08-08T02:00:43;2.2;;;1.3;;
26177;SDS011;13924;47.670;10.310;2023-08-08T02:15:44;3.7;;;1.4;;
26177;SDS011;13924;47.670;10.310;2023-08-08T02:30:45;3.4;;;1.5;;
26177;SDS011;13924;47.670;10.310;2023-08-08T02:45:45;1.8;;;1.3;;
26177;SDS011;13924;47.670;10.310;2023-08-08T03:00:46;1.5;;;1.4;;
26177;SDS011;13924;47.670;10.310;2023-08-08T03:15:47;2.6;;;1.7;;
26177;SDS011;13924;47.670;10.310;2023-08-08T03:30:47;2.4;;;1.8;;
26177;SDS011;13924;47.670;10.310;2023-08-08T03:45:48;4.8;;;1.8;;
26177;SDS011;13924;47.670;10.310;2023-08-08T04:00:07;5.4;;;2.1;;
26177;SDS011;13924;47.670;10.310;2023-08-08T04:15:06;3.4;;;2.1;;
26177;SDS011;13924;47.670;10.310;2023-08-08T04:30:07;3.6;;;2.2;;
26177;SDS011;13924;47.670;10.310;2023-08-08T04:45:07;3.1;;;1.9;;
26177;SDS011;13924;47.670;10.310;2023-08-08T05:00:08;3.8;;;1.9;;
26177;SDS011;13924;47.670;10.310;2023-08-08T05:15:08;2.2;;;1.8;;
26177;SDS011;13924;47.670;10.310;2023-08-08T05:30:09;2.0;;;1.7;;
26177;SDS011;13924;47.670;10.310;2023-08-08T05:45:10;5.1;;;1.6;;
26177;SDS011;13924;47.670;10.310;2023-08-08T06:00:11;2.9;;;2.0;;
26177;SDS011;13924;47.670;10.310;2023-08-08T06:15:11;2.4;;;1.6;;
26177;SDS011;13924;47.670;10.310;2023-08-08T06:30:13;2.9;;;1.7;;
26177;SDS011;13924;47.670;10.310;2023-08-08T06:45:13;2.0;;;1.6;;
26177;SDS011;13924;47.670;10.310;2023-08-08T07:00:14;1.9;;;1.2;;
26177;SDS011;13924;47.670;10.310;2023-08-08T07:15:14;2.6;;;1.3;;
26177;SDS011;13924;47.670;10.310;2023-08-08T07:30:15;2.0;;;1.2;;
26177;SDS011;13924;47.670;10.310;2023-08-08T07:45:15;2.5;;;1.2;;
26177;SDS011;13924;47.670;10.310;2023-08-08T08:00:16;2.3;;;1.3;;
26177;SDS011;13924;47.670;10.310;2023-08-08T08:15:17;2.5;;;1.5;;
26177;SDS011;13924;47.670;10.310;2023-08-08T08:30:17;1.8;;;1.0;;
26177;SDS011;13924;47.670;10.310;2023-08-08T08:45:19;2.2;;;1.2;;
26177;SDS011;13924;47.670;10.310;2023-08-08T09:00:19;1.7;;;1.0;;
26177;SDS011;13924;47.670;10.310;2023-08-08T09:15:20;2.2;;;1.5;;
26177;SDS011;13924;47.670;10.310;2023-08-08T09:30:20;2.4;;;1.1;;
26177;SDS011;13924;47.670;10.310;2023-08-08T09:45:21;2.4;;;0.9;;
26177;SDS011;13924;47.670;10.310;2023-08-08T10:00:23;1.9;;;0.8;;
26177;SDS011;13924;47.670;10.310;2023-08-08T10:15:25;2.9;;;0.9;;
26177;SDS011;13924;47.670;10.310;2023-08-08T10:30:26;1.9;;;1.3;;
26177;SDS011;13924;47.670;10.310;2023-08-08T10:45:29;3.6;;;1.2;;
26177;SDS011;13924;47.670;10.310;2023-08-08T11:00:30;2.1;;;1.0;;
26177;SDS011;13924;47.670;10.310;2023-08-08T11:15:31;1.0;;;0.9;;
26177;SDS011;13924;47.670;10.310;2023-08-08T11:30:30;1.7;;;0.9;;
26177;SDS011;13924;47.670;10.310;2023-08-08T11:45:31;1.6;;;0.9;;
26177;SDS011;13924;47.670;10.310;2023-08-08T12:00:31;2.5;;;1.0;;
26177;SDS011;13924;47.670;10.310;2023-08-08T12:15:32;2.1;;;1.0;;
26177;SDS011;13924;47.670;10.310;2023-08-08T12:30:32;3.3;;;1.0;;
26177;SDS011;13924;47.670;10.310;2023-08-08T12:45:32;1.6;;;0.9;;
26177;SDS011;13924;47.670;10.310;2023-08-08T13:00:34;1.2;;;0.9;;
26177;SDS011;13924;47.670;10.310;2023-08-08T13:15:35;2.0;;;1.1;;
26177;SDS011;13924;47.670;10.310;2023-08-08T13:30:35;2.1;;;1.0;;
26177;SDS011;13924;47.670;10.310;2023-08-08T13:45:35;1.5;;;1.0;;
26177;SDS011;13924;47.670;10.310;2023-08-08T14:00:36;1.0;;;0.8;;
26177;SDS011;13924;47.670;10.310;2023-08-08T14:15:36;3.2;;;0.9;;
26177;SDS011;13924;47.670;10.310;2023-08-08T14:30:42;1.6;;;1.0;;
26177;SDS011;13924;47.670;10.310;2023-08-08T14:45:50;1.9;;;1.1;;
26177;SDS011;13924;47.670;10.310;2023-08-08T15:00:39;1.6;;;0.9;;
26177;SDS011;13924;47.670;10.310;2023-08-08T15:15:39;1.4;;;1.1;;
26177;SDS011;13924;47.670;10.310;2023-08-08T15:30:40;1.8;;;1.1;;
26177;SDS011;13924;47.670;10.310;2023-08-08T15:45:40;3.4;;;1.1;;
26177;SDS011;13924;47.670;10.310;2023-08-08T16:00:42;3.3;;;1.1;;
26177;SDS011;13924;47.670;10.310;2023-08-08T16:15:42;1.0;;;0.9;;
26177;SDS011;13924;47.670;10.310;2023-08-08T16:30:43;3.1;;;1.0;;
26177;SDS011;13924;47.670;10.310;2023-08-08T16:45:44;1.6;;;1.1;;
26177;SDS011;13924;47.670;10.310;2023-08-08T17:00:44;2.1;;;1.2;;
26177;SDS011;13924;47.670;10.310;2023-08-08T17:15:45;2.2;;;1.4;;
26177;SDS011;13924;47.670;10.310;2023-08-08T17:30:45;2.1;;;1.2;;
26177;SDS011;13924;47.670;10.310;2023-08-08T17:45:55;2.1;;;1.3;;
26177;SDS011;13924;47.670;10.310;2023-08-08T18:00:49;3.6;;;1.3;;
26177;SDS011;13924;47.670;10.310;2023-08-08T18:15:48;2.0;;;1.3;;
26177;SDS011;13924;47.670;10.310;2023-08-08T18:30:48;3.7;;;2.8;;
26177;SDS011;13924;47.670;10.310;2023-08-08T18:45:49;5.6;;;1.9;;
26177;SDS011;13924;47.670;10.310;2023-08-08T19:00:50;1.9;;;1.4;;
26177;SDS011;13924;47.670;10.310;2023-08-08T19:15:50;3.0;;;1.8;;
26177;SDS011;13924;47.670;10.310;2023-08-08T19:30:52;2.4;;;1.5;;
26177;SDS011;13924;47.670;10.310;2023-08-08T19:45:52;3.2;;;1.5;;
26177;SDS011;13924;47.670;10.310;2023-08-08T20:00:52;3.7;;;1.6;;
26177;SDS011;13924;47.670;10.310;2023-08-08T20:15:52;5.9;;;2.2;;
26177;SDS011;13924;47.670;10.310;2023-08-08T20:30:54;3.9;;;1.6;;
26177;SDS011;13924;47.670;10.310;2023-08-08T20:45:54;1.9;;;1.8;;
26177;SDS011;13924;47.670;10.310;2023-08-08T21:00:55;3.8;;;2.2;;
26177;SDS011;13924;47.670;10.310;2023-08-08T21:15:55;3.8;;;1.8;;
26177;SDS011;13924;47.670;10.310;2023-08-08T21:30:56;3.7;;;1.7;;
26177;SDS011;13924;47.670;10.310;2023-08-08T21:46:06;2.0;;;1.4;;
26177;SDS011;13924;47.670;10.310;2023-08-08T22:00:34;2.7;;;1.7;;
26177;SDS011;13924;47.670;10.310;2023-08-08T22:15:34;3.5;;;1.8;;
26177;SDS011;13924;47.670;10.310;2023-08-08T22:30:34;4.1;;;1.7;;
26177;SDS011;13924;47.670;10.310;2023-08-08T22:45:34;2.4;;;1.9;;
26177;SDS011;13924;47.670;10.310;2023-08-08T23:00:35;2.5;;;1.6;;
26177;SDS011;13924;47.670;10.310;2023-08-08T23:15:36;2.7;;;2.0;;
26177;SDS011;13924;47.670;10.310;2023-08-08T23:30:37;2.9;;;1.6;;
26177;SDS011;13924;47.670;10.310;2023-08-08T23:45:39;4.0;;;2.1;;
